createdAt,value
2023-04-12T00:01:08.822Z,41.40
2023-04-12T00:05:17.384Z,41.28
2023-04-12T00:07:21.166Z,42.72
2023-04-12T00:09:25.393Z,40.47
2023-04-12T00:11:28.283Z,45.00
2023-04-12T00:13:32.411Z,45.45
2023-04-12T00:15:33.838Z,31.95
2023-04-12T00:17:35.381Z,27.73
2023-04-12T00:19:41.413Z,37.42
2023-04-12T00:21:45.860Z,31.75
2023-04-12T00:23:47.523Z,40.53
2023-04-12T00:25:48.942Z,30.67
2023-04-12T00:27:50.420Z,39.80
2023-04-12T00:29:51.850Z,33.88
2023-04-12T00:32:12.107Z,44.25
2023-04-12T00:36:22.137Z,37.33
2023-04-12T00:38:23.552Z,38.55
2023-04-12T00:40:25.593Z,39.95
2023-04-12T00:42:46.258Z,58.17
2023-04-12T00:44:47.661Z,36.67
2023-04-12T00:46:51.907Z,41.65
2023-04-12T00:48:57.657Z,29.20
2023-04-12T00:51:03.974Z,26.25
2023-04-12T00:53:11.848Z,39.10
2023-04-12T00:55:13.345Z,54.60
2023-04-12T00:57:17.430Z,42.95
2023-04-12T01:01:23.019Z,34.88
2023-04-12T01:03:27.972Z,47.42
2023-04-12T01:05:35.449Z,45.00
2023-04-12T01:10:01.472Z,31.23
2023-04-12T01:12:11.112Z,46.75
2023-04-12T01:14:27.847Z,42.17
2023-04-12T01:16:36.130Z,47.05
2023-04-12T01:18:49.507Z,42.30
2023-04-12T01:21:05.487Z,38.80
2023-04-12T01:23:29.017Z,30.83
2023-04-12T01:25:43.801Z,36.75
2023-04-12T01:27:54.640Z,30.75
2023-04-12T01:30:03.299Z,40.33
2023-04-12T01:32:10.549Z,45.17
2023-04-12T01:34:16.981Z,34.53
2023-04-12T01:36:27.257Z,33.85
2023-04-12T01:38:40.971Z,40.20
2023-04-12T01:40:51.478Z,34.42
2023-04-12T01:43:06.518Z,43.88
2023-04-12T01:45:15.035Z,35.92
2023-04-12T01:47:25.514Z,28.17
2023-04-12T01:49:35.460Z,37.60
2023-04-12T01:51:48.661Z,31.65
2023-04-12T01:54:02.929Z,29.02
2023-04-12T01:58:16.974Z,21.70
2023-04-12T02:00:23.037Z,34.58
2023-04-12T02:02:24.882Z,33.00
2023-04-12T02:04:29.146Z,25.08
2023-04-12T02:08:37.744Z,27.45
2023-04-12T02:10:42.396Z,24.27
2023-04-12T02:15:08.035Z,32.08
2023-04-12T02:17:09.661Z,32.65
2023-04-12T02:21:18.184Z,30.20
2023-04-12T02:23:38.029Z,42.47
2023-04-12T02:27:44.368Z,35.03
2023-04-12T02:30:05.363Z,26.05
2023-04-12T02:32:06.729Z,26.05
2023-04-12T02:34:08.186Z,23.55
2023-04-12T02:36:15.641Z,22.83
2023-04-12T02:38:19.728Z,34.50
2023-04-12T02:40:21.929Z,22.75
2023-04-12T02:42:42.941Z,21.35
2023-04-12T02:44:47.954Z,25.55
2023-04-12T02:46:49.440Z,25.63
2023-04-12T02:48:53.538Z,28.97
2023-04-12T02:50:55.033Z,26.70
2023-04-12T02:52:59.316Z,26.40
2023-04-12T02:55:01.098Z,18.33
2023-04-12T02:57:03.801Z,26.25
2023-04-12T02:59:07.960Z,27.52
2023-04-12T03:01:13.400Z,20.33
2023-04-12T03:03:34.634Z,17.85
2023-04-12T03:05:36.381Z,21.30
2023-04-12T03:07:38.618Z,40.83
2023-04-12T03:09:44.582Z,19.77
2023-04-12T03:11:48.593Z,29.17
2023-04-12T03:13:53.365Z,24.58
2023-04-12T03:15:58.810Z,30.25
2023-04-12T03:18:03.476Z,25.50
2023-04-12T03:20:09.914Z,26.00
2023-04-12T03:22:11.698Z,26.05
2023-04-12T03:24:13.736Z,34.45
2023-04-12T03:26:15.397Z,25.88
2023-04-12T03:28:16.809Z,21.30
2023-04-12T03:30:21.210Z,26.83
2023-04-12T03:32:22.786Z,21.90
2023-04-12T03:34:32.239Z,28.60
2023-04-12T03:36:33.982Z,25.23
2023-04-12T03:38:38.342Z,29.08
2023-04-12T03:40:39.766Z,19.05
2023-04-12T03:42:41.148Z,34.10
2023-04-12T03:44:42.913Z,27.35
2023-04-12T03:46:44.507Z,18.30
2023-04-12T03:48:46.011Z,25.65
2023-04-12T03:50:48.464Z,21.70
2023-04-12T03:52:52.825Z,16.95
2023-04-12T03:54:57.211Z,27.05
2023-04-12T03:56:58.728Z,21.48
2023-04-12T03:59:03.184Z,36.15
2023-04-12T04:01:07.554Z,22.92
2023-04-12T04:03:11.959Z,32.08
2023-04-12T04:05:13.529Z,29.73
2023-04-12T04:07:18.128Z,21.58
2023-04-12T04:09:19.995Z,31.80
2023-04-12T04:11:26.685Z,39.90
2023-04-12T04:15:47.058Z,23.42
2023-04-12T04:18:02.054Z,29.60
2023-04-12T04:20:19.842Z,27.55
2023-04-12T04:22:36.892Z,24.15
2023-04-12T04:24:52.642Z,27.42
2023-04-12T04:27:19.029Z,30.13
2023-04-12T04:29:34.500Z,30.10
2023-04-12T04:31:45.806Z,27.58
2023-04-12T04:33:55.787Z,24.17
2023-04-12T04:36:11.438Z,18.48
2023-04-12T04:38:21.878Z,29.42
2023-04-12T04:40:34.009Z,19.63
2023-04-12T04:42:47.282Z,17.65
2023-04-12T04:45:06.329Z,24.75
2023-04-12T04:47:09.780Z,22.83
2023-04-12T04:49:11.528Z,19.98
2023-04-12T04:51:15.726Z,29.77
2023-04-12T04:53:18.663Z,19.55
2023-04-12T04:55:24.862Z,12.10
2023-04-12T04:57:29.290Z,16.27
2023-04-12T04:59:33.886Z,20.20
2023-04-12T05:01:36.599Z,14.25
2023-04-12T05:03:40.957Z,17.10
2023-04-12T05:05:42.511Z,16.90
2023-04-12T05:09:49.154Z,22.27
2023-04-12T05:11:53.201Z,18.85
2023-04-12T05:13:54.684Z,15.02
2023-04-12T05:15:58.986Z,25.08
2023-04-12T05:18:00.595Z,22.73
2023-04-12T05:20:03.815Z,19.67
2023-04-12T05:22:05.525Z,15.60
2023-04-12T05:24:07.324Z,21.00
2023-04-12T05:26:11.657Z,17.83
2023-04-12T05:28:17.326Z,20.70
2023-04-12T05:30:40.057Z,28.10
2023-04-12T05:32:44.766Z,18.15
2023-04-12T05:34:46.428Z,15.50
2023-04-12T05:38:52.369Z,14.55
2023-04-12T05:40:54.205Z,15.35
2023-04-12T05:42:58.456Z,19.83
2023-04-12T05:47:04.457Z,13.95
2023-04-12T05:49:08.608Z,21.50
2023-04-12T05:51:10.276Z,15.30
2023-04-12T05:53:13.654Z,20.05
2023-04-12T05:55:16.384Z,21.95
2023-04-12T05:57:17.810Z,15.73
2023-04-12T05:59:22.414Z,15.15
2023-04-12T06:01:24.838Z,13.25
2023-04-12T06:03:30.320Z,19.80
2023-04-12T06:05:35.161Z,13.07
2023-04-12T06:07:39.807Z,16.48
2023-04-12T06:09:42.221Z,25.70
2023-04-12T06:11:46.897Z,18.88
2023-04-12T06:13:51.492Z,14.70
2023-04-12T06:15:56.170Z,11.57
2023-04-12T06:17:59.591Z,14.35
2023-04-12T06:20:06.341Z,13.93
2023-04-12T06:22:26.772Z,11.65
2023-04-12T06:24:28.420Z,17.23
2023-04-12T06:26:38.873Z,12.93
2023-04-12T06:28:44.101Z,17.60
2023-04-12T06:30:48.469Z,10.13
2023-04-12T06:32:49.931Z,8.95
2023-04-12T06:34:51.584Z,23.10
2023-04-12T06:36:53.122Z,14.45
2023-04-12T06:38:57.646Z,16.60
2023-04-12T06:41:02.114Z,13.18
2023-04-12T06:43:03.617Z,15.25
2023-04-12T06:45:23.951Z,27.45
2023-04-12T06:47:25.582Z,18.05
2023-04-12T06:49:27.356Z,19.33
2023-04-12T06:51:31.796Z,12.13
2023-04-12T06:53:38.231Z,17.88
2023-04-12T06:55:42.403Z,13.45
2023-04-12T06:57:44.881Z,9.88
2023-04-12T06:59:48.859Z,17.02
2023-04-12T07:01:50.499Z,14.48
2023-04-12T07:04:11.071Z,18.02
2023-04-12T07:06:25.186Z,12.30
2023-04-12T07:08:30.361Z,10.00
2023-04-12T07:10:36.185Z,10.25
2023-04-12T07:12:37.641Z,15.55
2023-04-12T07:14:39.134Z,7.32
2023-04-12T07:16:43.630Z,10.15
2023-04-12T07:18:54.734Z,10.68
2023-04-12T07:21:07.598Z,11.15
2023-04-12T07:23:20.709Z,8.57
2023-04-12T07:25:35.969Z,8.23
2023-04-12T07:27:51.955Z,7.80
2023-04-12T07:30:07.067Z,9.82
2023-04-12T07:32:25.466Z,3.85
2023-04-12T07:34:49.477Z,3.55
2023-04-12T07:37:02.390Z,2.58
2023-04-12T07:39:16.739Z,4.13
2023-04-12T07:41:34.715Z,2.55
2023-04-12T07:43:41.911Z,5.10
2023-04-12T07:45:51.604Z,2.80
2023-04-12T07:47:59.700Z,7.07
2023-04-12T07:50:13.425Z,4.40
2023-04-12T07:54:32.054Z,5.05
2023-04-12T07:56:34.036Z,4.63
2023-04-12T07:58:38.255Z,9.85
2023-04-12T08:01:00.959Z,6.03
2023-04-12T08:03:21.963Z,6.47
2023-04-12T08:05:42.243Z,6.72
2023-04-12T08:07:46.437Z,7.60
2023-04-12T08:09:48.364Z,8.45
2023-04-12T08:11:53.173Z,3.38
2023-04-12T08:13:57.867Z,7.30
2023-04-12T08:16:02.275Z,4.55
2023-04-12T08:18:04.270Z,8.23
2023-04-12T08:20:06.112Z,4.45
2023-04-12T08:22:12.558Z,6.32
2023-04-12T08:24:15.083Z,4.13
2023-04-12T08:26:19.532Z,3.75
2023-04-12T08:28:23.881Z,5.72
2023-04-12T08:30:27.087Z,6.93
2023-04-12T08:32:31.156Z,3.58
2023-04-12T08:34:51.513Z,4.82
2023-04-12T08:36:52.960Z,9.55
2023-04-12T08:38:58.032Z,5.68
2023-04-12T08:41:03.432Z,6.13
2023-04-12T08:43:28.301Z,7.78
2023-04-12T08:45:32.958Z,9.23
2023-04-12T08:47:46.623Z,8.25
2023-04-12T08:49:48.122Z,8.35
2023-04-12T08:51:56.157Z,7.43
2023-04-12T08:54:00.367Z,14.48
2023-04-12T08:56:02.385Z,12.95
2023-04-12T08:58:07.476Z,7.07
2023-04-12T09:00:27.898Z,10.90
2023-04-12T09:02:29.898Z,8.82
2023-04-12T09:04:50.683Z,7.38
2023-04-12T09:06:52.403Z,7.63
2023-04-12T09:08:54.541Z,7.25
2023-04-12T09:10:59.291Z,4.68
2023-04-12T09:13:01.284Z,7.32
2023-04-12T09:15:09.280Z,5.28
2023-04-12T09:17:23.692Z,5.75
2023-04-12T09:19:32.126Z,9.23
2023-04-12T09:21:37.110Z,10.13
2023-04-12T09:23:41.321Z,10.43
2023-04-12T09:25:45.918Z,8.35
2023-04-12T09:27:51.412Z,5.38
2023-04-12T09:30:08.125Z,5.30
2023-04-12T09:32:09.560Z,8.13
2023-04-12T09:34:13.847Z,6.20
2023-04-12T09:36:19.243Z,7.88
2023-04-12T09:38:23.554Z,8.40
2023-04-12T09:40:25.591Z,7.45
2023-04-12T09:42:33.195Z,9.50
2023-04-12T09:44:35.922Z,5.20
2023-04-12T09:46:50.082Z,11.70
2023-04-12T09:48:52.730Z,6.40
2023-04-12T09:51:01.342Z,6.63
2023-04-12T09:53:15.389Z,5.97
2023-04-12T09:55:21.178Z,10.98
2023-04-12T09:57:26.564Z,13.45
2023-04-12T09:59:47.257Z,9.35
2023-04-12T10:01:52.450Z,8.30
2023-04-12T10:03:54.628Z,13.88
2023-04-12T10:05:56.452Z,10.25
2023-04-12T10:08:00.735Z,11.18
2023-04-12T10:10:21.258Z,10.50
2023-04-12T10:12:22.728Z,16.17
2023-04-12T10:14:27.948Z,14.70
2023-04-12T10:16:30.406Z,12.35
2023-04-12T10:18:34.774Z,10.48
2023-04-12T10:20:40.169Z,12.73
2023-04-12T10:22:42.112Z,14.82
2023-04-12T10:24:46.660Z,14.30
2023-04-12T10:26:55.861Z,7.82
2023-04-12T10:29:17.488Z,15.35
2023-04-12T10:31:30.345Z,13.10
2023-04-12T10:33:33.904Z,20.60
2023-04-12T10:35:57.231Z,18.70
2023-04-12T10:38:07.176Z,20.90
2023-04-12T10:40:17.791Z,25.52
2023-04-12T10:42:30.598Z,15.32
2023-04-12T10:44:34.357Z,20.77
2023-04-12T10:46:46.410Z,17.58
2023-04-12T10:48:54.605Z,15.25
2023-04-12T10:51:15.039Z,19.85
2023-04-12T10:53:19.171Z,12.38
2023-04-12T10:55:28.962Z,15.68
2023-04-12T10:57:43.003Z,13.70
2023-04-12T10:59:55.208Z,17.67
2023-04-12T11:02:14.351Z,14.40
2023-04-12T11:04:26.571Z,18.85
2023-04-12T11:06:42.182Z,15.38
2023-04-12T11:08:43.637Z,13.23
2023-04-12T11:10:47.839Z,15.35
2023-04-12T11:12:50.424Z,13.37
2023-04-12T11:14:52.181Z,15.43
2023-04-12T11:17:05.955Z,12.13
2023-04-12T11:19:07.623Z,14.80
2023-04-12T11:21:11.726Z,12.90
2023-04-12T11:23:13.269Z,21.13
2023-04-12T11:25:18.116Z,17.42
2023-04-12T11:27:23.929Z,18.83
2023-04-12T11:29:26.126Z,24.17
2023-04-12T11:31:46.766Z,19.38
2023-04-12T11:33:51.378Z,25.67
2023-04-12T11:35:52.933Z,22.63
2023-04-12T11:37:54.874Z,22.00
2023-04-12T11:39:58.170Z,10.75
2023-04-12T11:42:03.314Z,19.52
2023-04-12T11:44:07.933Z,16.37
2023-04-12T11:46:12.143Z,17.17
2023-04-12T11:48:16.589Z,18.08
2023-04-12T11:50:31.204Z,20.25
2023-04-12T11:52:35.894Z,22.38
2023-04-12T11:54:43.638Z,21.67
2023-04-12T11:56:48.476Z,28.92
2023-04-12T11:58:50.120Z,20.42
2023-04-12T12:00:51.793Z,23.20
2023-04-12T12:03:06.745Z,29.77
2023-04-12T12:05:09.712Z,23.15
2023-04-12T12:07:15.662Z,25.25
2023-04-12T12:09:17.265Z,20.33
2023-04-12T12:11:22.274Z,24.08
2023-04-12T12:13:23.701Z,28.20
2023-04-12T12:15:30.877Z,32.85
2023-04-12T12:17:38.893Z,28.95
2023-04-12T12:19:45.143Z,33.85
2023-04-12T12:21:47.197Z,15.30
2023-04-12T12:24:07.375Z,11.80
2023-04-12T12:26:19.564Z,14.48
2023-04-12T12:28:23.528Z,15.93
2023-04-12T12:30:25.498Z,10.68
2023-04-12T12:32:27.220Z,22.70
2023-04-12T12:34:32.322Z,12.10
2023-04-12T12:36:38.600Z,14.50
2023-04-12T12:38:43.268Z,17.48
2023-04-12T12:40:47.595Z,18.80
2023-04-12T12:42:54.709Z,20.77
2023-04-12T12:44:56.144Z,15.85
2023-04-12T12:47:10.128Z,17.75
2023-04-12T12:49:21.402Z,14.88
2023-04-12T12:51:22.885Z,14.57
2023-04-12T12:53:24.587Z,24.60
2023-04-12T12:55:30.415Z,16.95
2023-04-12T12:58:06.145Z,15.43
2023-04-12T13:00:28.209Z,16.75
2023-04-12T13:02:32.691Z,19.25
2023-04-12T13:04:34.331Z,11.55
2023-04-12T13:06:35.785Z,6.20
2023-04-12T13:08:37.296Z,8.27
2023-04-12T13:10:38.791Z,11.95
2023-04-12T13:12:40.640Z,1.88
2023-04-12T13:14:45.008Z,5.38
2023-04-12T13:18:50.898Z,3.45
2023-04-12T13:22:57.073Z,3.42
2023-04-12T13:25:01.916Z,2.05
2023-04-12T13:27:06.039Z,2.90
2023-04-12T13:29:07.524Z,7.72
2023-04-12T13:31:09.065Z,9.88
2023-04-12T13:33:10.864Z,6.07
2023-04-12T13:35:26.240Z,3.75
2023-04-12T13:37:42.635Z,7.00
2023-04-12T13:39:51.396Z,5.90
2023-04-12T13:41:53.001Z,2.35
2023-04-12T13:43:54.474Z,6.70
2023-04-12T13:45:59.563Z,4.00
2023-04-12T13:48:11.934Z,9.65
2023-04-12T13:50:36.952Z,12.38
2023-04-12T13:52:54.705Z,17.13
2023-04-12T13:55:06.403Z,11.07
2023-04-12T13:57:12.932Z,7.75
2023-04-12T13:59:21.789Z,11.13
2023-04-12T14:01:29.213Z,11.02
2023-04-12T14:03:36.923Z,12.27
2023-04-12T14:05:44.316Z,13.48
2023-04-12T14:07:51.496Z,15.40
2023-04-12T14:10:01.541Z,25.05
2023-04-12T14:12:08.853Z,18.27
2023-04-12T14:14:19.677Z,16.83
2023-04-12T14:16:24.824Z,23.65
2023-04-12T14:18:52.623Z,25.42
2023-04-12T14:21:01.314Z,11.90
2023-04-12T14:23:10.654Z,10.27
2023-04-12T14:25:31.300Z,16.15
2023-04-12T14:27:35.833Z,28.83
2023-04-12T14:29:39.970Z,8.70
2023-04-12T14:32:00.337Z,10.05
2023-04-12T14:34:02.514Z,5.75
2023-04-12T14:36:08.289Z,9.10
2023-04-12T14:38:12.758Z,3.08
2023-04-12T14:40:14.821Z,5.97
2023-04-12T14:42:35.750Z,10.48
2023-04-12T14:44:37.218Z,9.82
2023-04-12T14:46:38.788Z,2.63
2023-04-12T14:48:41.373Z,5.18
2023-04-12T14:50:45.709Z,7.05
2023-04-12T14:52:47.217Z,4.82
2023-04-12T14:54:48.626Z,4.97
2023-04-12T14:56:54.058Z,4.38
2023-04-12T14:58:57.188Z,4.18
2023-04-12T15:01:00.290Z,5.47
2023-04-12T15:03:02.071Z,4.30
2023-04-12T15:05:09.965Z,10.20
2023-04-12T15:07:30.295Z,8.43
2023-04-12T15:11:35.785Z,8.70
2023-04-12T15:15:47.402Z,6.00
2023-04-12T15:17:49.081Z,8.38
2023-04-12T15:19:53.308Z,11.93
2023-04-12T15:21:57.437Z,7.57
2023-04-12T15:26:19.282Z,13.02
2023-04-12T15:28:23.761Z,11.10
2023-04-12T15:30:28.371Z,12.27
2023-04-12T15:32:29.997Z,9.23
2023-04-12T15:34:33.864Z,9.30
2023-04-12T15:36:38.740Z,13.10
2023-04-12T15:38:43.278Z,10.27
2023-04-12T15:40:45.002Z,6.88
2023-04-12T15:42:49.514Z,10.48
2023-04-12T15:44:51.099Z,8.68
2023-04-12T15:47:12.158Z,6.47
2023-04-12T15:49:13.686Z,10.90
2023-04-12T15:51:15.106Z,10.48
2023-04-12T15:53:20.646Z,12.18
2023-04-12T15:55:24.939Z,8.98
2023-04-12T15:57:27.653Z,6.25
2023-04-12T15:59:30.023Z,3.65
2023-04-12T16:01:35.777Z,6.90
2023-04-12T16:03:37.623Z,7.87
2023-04-12T16:05:39.431Z,3.40
2023-04-12T16:07:40.931Z,8.57
2023-04-12T16:09:42.919Z,8.18
2023-04-12T16:11:48.259Z,10.95
2023-04-12T16:13:53.878Z,7.57
2023-04-12T16:15:57.942Z,5.95
2023-04-12T16:17:59.376Z,7.88
2023-04-12T16:20:06.025Z,8.82
2023-04-12T16:22:07.602Z,2.17
2023-04-12T16:24:11.980Z,2.25
2023-04-12T16:26:32.605Z,5.38
2023-04-12T16:28:37.265Z,10.00
2023-04-12T16:30:41.995Z,6.15
2023-04-12T16:32:47.269Z,4.50
2023-04-12T16:34:51.143Z,6.88
2023-04-12T16:36:53.766Z,3.30
2023-04-12T16:38:56.714Z,7.95
2023-04-12T16:40:58.778Z,8.77
2023-04-12T17:04:34.696Z,5.20
2023-04-12T17:06:48.195Z,3.78
2023-04-12T17:09:01.157Z,4.05
2023-04-12T17:11:12.124Z,4.00
2023-04-12T17:13:23.260Z,3.90
2023-04-12T17:15:33.547Z,1.63
2023-04-12T17:17:53.553Z,6.43
2023-04-12T17:20:02.104Z,3.13
2023-04-12T17:22:11.671Z,5.47
2023-04-12T17:24:23.019Z,2.60
2023-04-12T17:26:35.118Z,3.90
2023-04-12T17:28:48.669Z,4.10
2023-04-12T17:30:57.058Z,3.67
2023-04-12T17:33:01.270Z,5.50
2023-04-12T17:35:03.618Z,3.13
2023-04-12T17:37:08.053Z,3.00
2023-04-12T17:39:12.524Z,4.20
2023-04-12T17:41:32.621Z,6.95
2023-04-12T17:45:38.130Z,1.98
2023-04-12T17:49:46.737Z,5.20
2023-04-12T17:51:51.245Z,1.42
2023-04-12T17:53:58.214Z,2.95
2023-04-12T17:55:59.674Z,3.20
2023-04-12T17:58:01.060Z,3.58
2023-04-12T18:02:17.166Z,3.35
2023-04-12T18:04:19.053Z,2.83
2023-04-12T18:06:20.748Z,1.33
2023-04-12T18:08:25.451Z,0.60
2023-04-12T18:12:34.339Z,0.82
2023-04-12T18:14:36.968Z,3.88
2023-04-12T18:16:56.954Z,4.03
2023-04-12T18:21:05.985Z,2.42
2023-04-12T18:23:10.029Z,6.97
2023-04-12T18:25:12.354Z,4.18
2023-04-12T18:27:16.787Z,3.65
2023-04-12T18:29:19.442Z,2.63
2023-04-12T18:31:21.125Z,3.33
2023-04-12T18:33:22.632Z,8.30
2023-04-12T18:35:24.201Z,6.95
2023-04-12T18:37:28.493Z,8.05
2023-04-12T18:41:36.081Z,15.68
2023-04-12T18:43:38.561Z,6.18
2023-04-12T18:45:42.697Z,5.90
2023-04-12T18:48:03.376Z,13.10
2023-04-12T18:50:05.870Z,7.85
2023-04-12T18:52:10.081Z,6.75
2023-04-12T18:54:14.945Z,7.57
2023-04-12T18:56:18.537Z,8.43
2023-04-12T18:58:23.767Z,8.95
2023-04-12T19:00:29.413Z,7.68
2023-04-12T19:02:31.038Z,9.55
2023-04-12T19:04:32.775Z,13.68
2023-04-12T19:06:53.139Z,8.05
2023-04-12T19:08:57.582Z,11.57
2023-04-12T19:10:58.971Z,9.93
2023-04-12T19:15:08.435Z,6.43
2023-04-12T19:17:12.549Z,15.23
2023-04-12T19:19:14.090Z,11.70
2023-04-12T19:21:18.094Z,13.45
2023-04-12T19:23:22.435Z,11.02
2023-04-12T19:25:42.441Z,7.40
2023-04-12T19:27:46.898Z,8.00
2023-04-12T19:29:48.910Z,15.38
2023-04-12T19:32:12.172Z,13.48
2023-04-12T19:34:17.644Z,12.38
2023-04-12T19:36:38.079Z,15.15
2023-04-12T19:38:43.051Z,13.80
2023-04-12T19:40:47.749Z,14.02
2023-04-12T19:42:49.326Z,8.18
2023-04-12T19:44:52.159Z,13.02
2023-04-12T19:46:56.701Z,10.95
2023-04-12T19:51:05.484Z,13.30
2023-04-12T19:53:11.054Z,12.48
2023-04-12T19:55:16.058Z,10.35
2023-04-12T19:57:20.531Z,14.55
2023-04-12T19:59:30.832Z,11.95
2023-04-12T20:01:43.038Z,10.10
2023-04-12T20:03:47.494Z,9.65
2023-04-12T20:05:52.265Z,17.90
2023-04-12T20:08:12.139Z,15.85
2023-04-12T20:12:38.067Z,9.63
2023-04-12T20:14:45.459Z,12.40
2023-04-12T20:16:55.907Z,13.25
2023-04-12T20:19:00.686Z,6.22
2023-04-12T20:21:02.869Z,8.90
2023-04-12T20:23:05.757Z,7.80
2023-04-12T20:25:10.906Z,14.65
2023-04-12T20:27:16.757Z,10.90
2023-04-12T20:29:18.244Z,11.65
2023-04-12T20:31:20.314Z,13.73
2023-04-12T20:33:24.552Z,17.33
2023-04-12T20:35:26.457Z,12.60
2023-04-12T20:37:30.711Z,16.85
2023-04-12T20:39:32.582Z,12.23
2023-04-12T20:41:35.225Z,8.52
2023-04-12T20:43:46.583Z,13.80
2023-04-12T20:45:48.743Z,14.13
2023-04-12T20:47:53.090Z,15.43
2023-04-12T20:49:56.112Z,20.65
2023-04-12T20:51:58.932Z,19.35
2023-04-12T20:54:02.256Z,16.27
2023-04-12T20:56:04.757Z,19.50
2023-04-12T20:58:09.238Z,21.42
2023-04-12T21:00:20.390Z,14.05
2023-04-12T21:02:25.131Z,15.15
2023-04-12T21:04:27.858Z,19.00
2023-04-12T21:06:29.466Z,16.85
2023-04-12T21:08:36.113Z,16.52
2023-04-12T21:10:40.816Z,19.23
2023-04-12T21:12:45.031Z,15.35
2023-04-12T21:14:50.321Z,19.30
2023-04-12T21:16:54.928Z,14.60
2023-04-12T21:19:18.286Z,16.27
2023-04-12T21:21:20.224Z,21.85
2023-04-12T21:23:28.071Z,17.27
2023-04-12T21:25:29.525Z,10.75
2023-04-12T21:29:40.947Z,17.10
2023-04-12T21:31:42.623Z,19.67
2023-04-12T21:33:47.057Z,15.82
2023-04-12T21:35:48.511Z,15.77
2023-04-12T21:37:51.635Z,20.40
2023-04-12T21:39:56.231Z,17.55
2023-04-12T21:41:58.117Z,15.82
2023-04-12T21:44:02.762Z,23.45
2023-04-12T21:46:05.281Z,27.33
2023-04-12T21:48:06.908Z,19.95
2023-04-12T21:50:26.963Z,14.82
2023-04-12T21:52:30.953Z,22.80
2023-04-12T21:54:36.766Z,27.42
2023-04-12T21:56:41.376Z,25.55
2023-04-12T21:58:45.638Z,23.27
2023-04-12T22:03:10.324Z,18.77
2023-04-12T22:05:14.636Z,26.00
2023-04-12T22:07:19.219Z,18.08
2023-04-12T22:09:20.693Z,20.67
2023-04-12T22:11:28.438Z,20.67
2023-04-12T22:13:33.178Z,14.95
2023-04-12T22:15:53.289Z,14.52
2023-04-12T22:17:57.594Z,17.25
2023-04-12T22:19:59.664Z,22.30
2023-04-12T22:22:01.587Z,21.27
2023-04-12T22:24:03.059Z,20.77
2023-04-12T22:26:08.184Z,13.43
2023-04-12T22:28:11.635Z,17.02
2023-04-12T22:30:16.064Z,14.15
2023-04-12T22:32:17.645Z,16.52
2023-04-12T22:34:19.049Z,18.65
2023-04-12T22:36:20.920Z,14.88
2023-04-12T22:38:22.850Z,12.18
2023-04-12T22:40:26.844Z,17.85
2023-04-12T22:44:38.115Z,9.55
2023-04-12T22:46:43.816Z,24.55
2023-04-12T22:48:49.769Z,13.88
2023-04-12T22:50:51.241Z,13.77
2023-04-12T22:52:57.667Z,9.75
2023-04-12T22:55:02.019Z,11.85
2023-04-12T22:59:25.716Z,19.70
2023-04-12T23:01:29.836Z,13.68
2023-04-12T23:03:34.187Z,12.25
2023-04-12T23:05:38.885Z,10.15
2023-04-12T23:07:43.584Z,20.58
2023-04-12T23:09:45.689Z,21.50
2023-04-12T23:11:51.532Z,13.50
2023-04-12T23:13:53.811Z,12.15
2023-04-12T23:16:00.751Z,10.70
2023-04-12T23:18:03.706Z,18.30
2023-04-12T23:20:14.221Z,11.05
2023-04-12T23:22:44.548Z,10.25
2023-04-12T23:24:54.034Z,14.48
2023-04-12T23:26:57.845Z,14.95
2023-04-12T23:29:03.705Z,16.02
2023-04-12T23:31:08.141Z,18.02
2023-04-12T23:33:12.045Z,22.55
2023-04-12T23:35:14.518Z,16.73
2023-04-12T23:37:19.842Z,23.38
2023-04-12T23:39:22.806Z,17.45
2023-04-12T23:41:24.524Z,20.08
2023-04-12T23:43:26.450Z,16.20
2023-04-12T23:45:27.911Z,8.80
2023-04-12T23:47:29.457Z,18.10
2023-04-12T23:49:31.085Z,21.63
2023-04-12T23:53:36.475Z,19.17
2023-04-12T23:55:38.007Z,18.10
2023-04-12T23:59:43.689Z,19.38
